createdAt,value
2023-02-11T00:00:32.222Z,-2.34
2023-02-11T00:02:40.086Z,-2.28
2023-02-11T00:04:48.467Z,-2.35
2023-02-11T00:06:56.287Z,-2.52
2023-02-11T00:09:04.657Z,-2.64
2023-02-11T00:11:16.572Z,-2.72
2023-02-11T00:13:24.652Z,-2.79
2023-02-11T00:15:35.353Z,-2.83
2023-02-11T00:17:43.436Z,-2.81
2023-02-11T00:19:52.842Z,-2.82
2023-02-11T00:22:00.749Z,-2.79
2023-02-11T00:24:09.305Z,-2.84
2023-02-11T00:26:18.721Z,-2.85
2023-02-11T00:28:27.889Z,-2.78
2023-02-11T00:30:38.611Z,-2.57
2023-02-11T00:32:46.493Z,-2.59
2023-02-11T00:34:55.500Z,-2.67
2023-02-11T00:37:03.318Z,-2.77
2023-02-11T00:39:11.833Z,-2.73
2023-02-11T00:41:37.262Z,-2.71
2023-02-11T00:43:45.934Z,-2.69
2023-02-11T00:45:56.557Z,-2.76
2023-02-11T00:48:04.829Z,-2.75
2023-02-11T00:50:15.814Z,-2.69
2023-02-11T00:52:23.794Z,-2.68
2023-02-11T00:54:31.708Z,-2.53
2023-02-11T00:56:39.613Z,-2.57
2023-02-11T00:58:47.577Z,-2.62
2023-02-11T01:00:58.789Z,-2.78
2023-02-11T01:03:07.181Z,-2.88
2023-02-11T01:05:14.989Z,-2.95
2023-02-11T01:07:22.982Z,-2.91
2023-02-11T01:09:30.932Z,-2.98
2023-02-11T01:11:40.045Z,-3.07
2023-02-11T01:13:49.149Z,-3.05
2023-02-11T01:15:59.898Z,-2.95
2023-02-11T01:18:08.537Z,-2.89
2023-02-11T01:20:18.960Z,-3.03
2023-02-11T01:22:26.763Z,-3.08
2023-02-11T01:24:34.729Z,-3.11
2023-02-11T01:26:42.923Z,-2.99
2023-02-11T01:28:51.062Z,-3.19
2023-02-11T01:31:02.912Z,-3.23
2023-02-11T01:33:10.783Z,-3.26
2023-02-11T01:35:18.777Z,-3.22
2023-02-11T01:37:27.416Z,-3.26
2023-02-11T01:39:36.148Z,-3.26
2023-02-11T01:41:43.878Z,-3.34
2023-02-11T01:43:52.942Z,-3.32
2023-02-11T01:46:08.338Z,-3.30
2023-02-11T01:48:20.154Z,-3.23
2023-02-11T01:50:31.397Z,-3.15
2023-02-11T01:52:43.239Z,-3.21
2023-02-11T01:55:07.836Z,-3.27
2023-02-11T01:57:24.904Z,-3.27
2023-02-11T01:59:37.709Z,-3.30
2023-02-11T02:01:55.689Z,-3.28
2023-02-11T02:04:06.234Z,-3.43
2023-02-11T02:06:22.998Z,-3.56
2023-02-11T02:08:37.959Z,-3.53
2023-02-11T02:10:56.628Z,-3.57
2023-02-11T02:13:04.701Z,-3.63
2023-02-11T02:15:25.542Z,-3.60
2023-02-11T02:17:45.833Z,-3.58
2023-02-11T02:20:15.197Z,-3.56
2023-02-11T02:23:05.773Z,-3.53
2023-02-11T02:25:31.341Z,-3.50
2023-02-11T02:27:48.682Z,-3.54
2023-02-11T02:30:21.342Z,-3.50
2023-02-11T02:32:53.168Z,-3.53
2023-02-11T02:35:09.723Z,-3.48
2023-02-11T02:37:29.559Z,-3.47
2023-02-11T02:39:39.431Z,-3.34
2023-02-11T02:41:48.860Z,-3.35
2023-02-11T02:43:57.240Z,-3.34
2023-02-11T02:46:19.111Z,-3.28
2023-02-11T02:48:37.361Z,-3.16
2023-02-11T02:50:45.530Z,-3.10
2023-02-11T02:53:02.778Z,-3.13
2023-02-11T02:55:20.787Z,-2.96
2023-02-11T02:57:38.824Z,-2.97
2023-02-11T02:59:58.810Z,-2.84
2023-02-11T03:02:16.324Z,-3.04
2023-02-11T03:04:35.034Z,-3.11
2023-02-11T03:06:51.222Z,-3.15
2023-02-11T03:09:06.037Z,-3.27
2023-02-11T03:11:16.057Z,-3.23
2023-02-11T03:13:28.250Z,-3.18
2023-02-11T03:15:42.867Z,-3.13
2023-02-11T03:17:54.906Z,-3.10
2023-02-11T03:20:07.815Z,-3.25
2023-02-11T03:22:22.137Z,-3.21
2023-02-11T03:24:34.815Z,-3.12
2023-02-11T03:26:47.516Z,-3.07
2023-02-11T03:29:03.896Z,-3.18
2023-02-11T03:31:21.025Z,-2.99
2023-02-11T03:33:35.612Z,-3.14
2023-02-11T03:35:55.991Z,-3.07
2023-02-11T03:38:08.485Z,-2.99
2023-02-11T03:40:20.348Z,-3.02
2023-02-11T03:42:33.064Z,-3.04
2023-02-11T03:44:47.358Z,-2.98
2023-02-11T03:46:57.442Z,-2.99
2023-02-11T03:49:09.435Z,-2.88
2023-02-11T03:51:44.061Z,-2.83
2023-02-11T03:53:58.087Z,-2.75
2023-02-11T03:56:10.451Z,-2.81
2023-02-11T03:58:18.431Z,-2.69
2023-02-11T04:00:33.179Z,-2.69
2023-02-11T04:02:42.238Z,-2.58
2023-02-11T04:04:50.539Z,-2.47
2023-02-11T04:07:01.053Z,-2.57
2023-02-11T04:09:09.562Z,-2.55
2023-02-11T04:11:17.394Z,-2.65
2023-02-11T04:13:25.345Z,-2.65
2023-02-11T04:15:33.260Z,-2.63
2023-02-11T04:17:41.804Z,-2.62
2023-02-11T04:19:49.588Z,-2.62
2023-02-11T04:22:00.294Z,-2.62
2023-02-11T04:24:24.200Z,-2.60
2023-02-11T04:26:32.325Z,-2.57
2023-02-11T04:28:40.276Z,-2.55
2023-02-11T04:30:48.099Z,-2.46
2023-02-11T04:32:56.713Z,-2.50
2023-02-11T04:35:05.190Z,-2.47
2023-02-11T04:37:17.469Z,-2.51
2023-02-11T04:39:25.408Z,-2.64
2023-02-11T04:41:33.316Z,-2.49
2023-02-11T04:43:41.082Z,-2.48
2023-02-11T04:45:49.408Z,-2.44
2023-02-11T04:47:57.405Z,-2.43
2023-02-11T04:50:05.634Z,-2.42
2023-02-11T04:52:17.316Z,-2.32
2023-02-11T04:54:25.285Z,-2.32
2023-02-11T04:56:33.382Z,-2.36
2023-02-11T04:58:41.384Z,-2.48
2023-02-11T05:00:49.983Z,-2.46
2023-02-11T05:02:57.913Z,-2.36
2023-02-11T05:05:06.352Z,-2.33
2023-02-11T05:07:17.092Z,-2.46
2023-02-11T05:09:24.922Z,-2.38
2023-02-11T05:11:32.636Z,-2.40
2023-02-11T05:13:40.655Z,-2.62
2023-02-11T05:15:49.203Z,-2.71
2023-02-11T05:17:57.272Z,-2.46
2023-02-11T05:20:05.020Z,-2.44
2023-02-11T05:22:12.895Z,-2.34
2023-02-11T05:24:23.710Z,-2.37
2023-02-11T05:26:32.021Z,-2.41
2023-02-11T05:28:40.548Z,-2.45
2023-02-11T05:30:48.400Z,-2.62
2023-02-11T05:32:56.931Z,-2.52
2023-02-11T05:35:05.169Z,-2.67
2023-02-11T05:37:13.117Z,-2.60
2023-02-11T05:39:23.919Z,-2.82
2023-02-11T05:41:31.879Z,-2.81
2023-02-11T05:43:39.971Z,-2.78
2023-02-11T05:45:47.750Z,-2.85
2023-02-11T05:47:55.988Z,-2.85
2023-02-11T05:50:03.823Z,-2.75
2023-02-11T05:52:11.643Z,-2.88
2023-02-11T05:54:20.030Z,-2.87
2023-02-11T05:56:30.993Z,-2.90
2023-02-11T05:58:38.893Z,-2.80
2023-02-11T06:00:46.863Z,-2.84
2023-02-11T06:02:55.525Z,-2.81
2023-02-11T06:05:03.486Z,-2.81
2023-02-11T06:07:11.518Z,-2.82
2023-02-11T06:09:19.332Z,-2.74
2023-02-11T06:11:27.153Z,-2.67
2023-02-11T06:13:38.306Z,-2.60
2023-02-11T06:15:46.512Z,-2.67
2023-02-11T06:17:57.311Z,-2.60
2023-02-11T06:20:07.125Z,-2.60
2023-02-11T06:22:14.946Z,-2.39
2023-02-11T06:24:44.286Z,-2.41
2023-02-11T06:26:50.787Z,-2.42
2023-02-11T06:29:03.177Z,-2.34
2023-02-11T06:31:12.174Z,-2.37
2023-02-11T06:33:20.069Z,-2.30
2023-02-11T06:35:28.035Z,-2.29
2023-02-11T06:37:39.437Z,-2.14
2023-02-11T06:39:48.035Z,-2.11
2023-02-11T06:41:55.997Z,-2.16
2023-02-11T06:44:06.972Z,-2.19
2023-02-11T06:46:15.625Z,-2.10
2023-02-11T06:48:23.597Z,-2.10
2023-02-11T06:50:31.620Z,-2.23
2023-02-11T06:52:39.416Z,-2.16
2023-02-11T06:54:47.114Z,-2.03
2023-02-11T06:56:55.036Z,-2.12
2023-02-11T06:59:03.588Z,-2.05
2023-02-11T07:01:17.271Z,-1.96
2023-02-11T07:03:25.059Z,-1.86
2023-02-11T07:05:34.402Z,-1.76
2023-02-11T07:07:42.298Z,-1.72
2023-02-11T07:09:50.223Z,-1.70
2023-02-11T07:11:58.428Z,-1.65
2023-02-11T07:14:08.814Z,-1.67
2023-02-11T07:16:22.055Z,-1.54
2023-02-11T07:18:29.934Z,-1.67
2023-02-11T07:20:39.736Z,-1.53
2023-02-11T07:22:47.506Z,-1.30
2023-02-11T07:24:55.496Z,-1.34
2023-02-11T07:27:03.397Z,-1.39
2023-02-11T07:29:11.219Z,-1.49
2023-02-11T07:31:23.781Z,-1.31
2023-02-11T07:33:31.756Z,-1.34
2023-02-11T07:35:41.687Z,-1.33
2023-02-11T07:37:50.409Z,-1.35
2023-02-11T07:39:58.355Z,-1.16
2023-02-11T07:42:06.867Z,-0.99
2023-02-11T07:44:14.841Z,-1.15
2023-02-11T07:46:27.797Z,-1.07
2023-02-11T07:48:36.413Z,-0.87
2023-02-11T07:50:44.191Z,-0.57
2023-02-11T07:52:52.214Z,-0.44
2023-02-11T07:55:00.088Z,-0.42
2023-02-11T07:57:09.574Z,-0.55
2023-02-11T07:59:17.439Z,-0.49
2023-02-11T08:01:29.068Z,-0.56
2023-02-11T08:03:37.710Z,-0.58
2023-02-11T08:05:45.451Z,-0.41
2023-02-11T08:07:55.183Z,-0.43
2023-02-11T08:10:03.014Z,-0.56
2023-02-11T08:12:10.959Z,-0.61
2023-02-11T08:14:18.911Z,-0.59
2023-02-11T08:16:31.598Z,-0.53
2023-02-11T08:18:42.088Z,-0.47
2023-02-11T08:20:50.830Z,-0.27
2023-02-11T08:22:59.316Z,0.01
2023-02-11T08:25:08.053Z,-0.19
2023-02-11T08:27:15.933Z,-0.12
2023-02-11T08:29:23.905Z,-0.23
2023-02-11T08:31:38.152Z,0.06
2023-02-11T08:33:46.592Z,0.10
2023-02-11T08:35:54.420Z,-0.08
2023-02-11T08:38:05.180Z,-0.10
2023-02-11T08:40:13.807Z,-0.09
2023-02-11T08:42:21.818Z,0.06
2023-02-11T08:44:30.138Z,0.17
2023-02-11T08:46:40.924Z,-0.35
2023-02-11T08:48:50.282Z,-0.53
2023-02-11T08:51:00.856Z,-0.63
2023-02-11T08:53:08.994Z,-0.66
2023-02-11T08:55:16.738Z,-0.41
2023-02-11T08:57:24.635Z,-0.22
2023-02-11T08:59:33.199Z,-0.23
2023-02-11T09:01:44.417Z,-0.20
2023-02-11T09:03:52.811Z,-0.07
2023-02-11T09:06:01.066Z,0.02
2023-02-11T09:08:08.906Z,0.01
2023-02-11T09:10:17.068Z,-0.10
2023-02-11T09:12:25.009Z,-0.02
2023-02-11T09:14:33.084Z,-0.06
2023-02-11T09:16:46.457Z,-0.14
2023-02-11T09:18:54.820Z,0.28
2023-02-11T09:21:08.324Z,0.65
2023-02-11T09:23:18.539Z,0.80
2023-02-11T09:25:26.532Z,1.43
2023-02-11T09:27:34.299Z,2.09
2023-02-11T09:29:42.373Z,2.55
2023-02-11T09:31:52.990Z,2.80
2023-02-11T09:34:03.757Z,3.13
2023-02-11T09:36:12.446Z,4.02
2023-02-11T09:38:20.223Z,5.52
2023-02-11T09:40:28.122Z,6.29
2023-02-11T09:42:46.692Z,7.22
2023-02-11T09:44:55.323Z,7.33
2023-02-11T09:47:07.967Z,7.65
2023-02-11T09:49:23.365Z,9.02
2023-02-11T09:51:39.430Z,9.81
2023-02-11T09:53:47.506Z,9.18
2023-02-11T09:55:59.707Z,11.08
2023-02-11T09:58:15.160Z,11.34
2023-02-11T10:00:26.687Z,11.67
2023-02-11T10:02:50.054Z,10.13
2023-02-11T10:05:16.564Z,10.82
2023-02-11T10:07:32.491Z,11.93
2023-02-11T10:09:53.029Z,12.60
2023-02-11T10:12:14.312Z,13.25
2023-02-11T10:14:37.891Z,13.44
2023-02-11T10:16:58.313Z,12.96
2023-02-11T10:19:22.866Z,11.64
2023-02-11T10:21:42.513Z,10.05
2023-02-11T10:23:54.484Z,9.75
2023-02-11T10:26:03.340Z,9.12
2023-02-11T10:28:17.410Z,11.26
2023-02-11T10:30:33.734Z,9.64
2023-02-11T10:32:47.258Z,8.53
2023-02-11T10:35:01.792Z,8.53
2023-02-11T10:37:09.659Z,8.33
2023-02-11T10:39:19.491Z,7.10
2023-02-11T10:41:33.321Z,6.02
2023-02-11T10:43:41.810Z,6.50
2023-02-11T10:45:52.364Z,6.93
2023-02-11T10:48:00.469Z,7.37
2023-02-11T10:50:22.631Z,6.91
2023-02-11T10:52:31.425Z,6.47
2023-02-11T10:54:39.248Z,6.49
2023-02-11T10:56:50.215Z,7.61
2023-02-11T10:59:02.418Z,8.47
2023-02-11T11:01:24.012Z,8.35
2023-02-11T11:03:39.126Z,8.16
2023-02-11T11:05:55.562Z,8.49
2023-02-11T11:08:08.455Z,6.39
2023-02-11T11:10:31.377Z,5.35
2023-02-11T11:12:49.663Z,5.40
2023-02-11T11:15:01.452Z,5.71
2023-02-11T11:17:21.977Z,5.63
2023-02-11T11:19:30.268Z,5.71
2023-02-11T11:21:45.958Z,5.86
2023-02-11T11:23:57.426Z,6.14
2023-02-11T11:26:09.621Z,6.30
2023-02-11T11:28:25.080Z,6.47
2023-02-11T11:30:42.174Z,6.40
2023-02-11T11:32:50.373Z,6.42
2023-02-11T11:35:00.151Z,6.51
2023-02-11T11:37:22.193Z,6.34
2023-02-11T11:39:32.655Z,6.08
2023-02-11T11:41:52.794Z,5.58
2023-02-11T11:44:07.081Z,5.41
2023-02-11T11:46:15.312Z,5.41
2023-02-11T11:48:28.093Z,5.63
2023-02-11T11:50:44.762Z,5.67
2023-02-11T11:53:00.346Z,5.63
2023-02-11T11:55:19.510Z,5.86
2023-02-11T11:57:31.463Z,5.96
2023-02-11T11:59:39.929Z,6.09
2023-02-11T12:02:02.196Z,6.15
2023-02-11T12:04:38.359Z,6.32
2023-02-11T12:06:59.024Z,6.34
2023-02-11T12:09:18.959Z,6.59
2023-02-11T12:11:33.407Z,6.81
2023-02-11T12:14:09.418Z,7.09
2023-02-11T12:16:26.099Z,7.45
2023-02-11T12:18:59.567Z,7.69
2023-02-11T12:21:29.670Z,8.19
2023-02-11T12:23:51.232Z,8.35
2023-02-11T12:26:11.030Z,7.90
2023-02-11T12:28:32.079Z,7.77
2023-02-11T12:31:04.525Z,8.12
2023-02-11T12:33:23.015Z,8.04
2023-02-11T12:35:41.878Z,8.11
2023-02-11T12:38:08.642Z,8.34
2023-02-11T12:40:22.057Z,8.25
2023-02-11T12:43:07.003Z,8.57
2023-02-11T12:45:28.494Z,8.62
2023-02-11T12:47:47.637Z,8.31
2023-02-11T12:50:12.206Z,7.88
2023-02-11T12:52:32.882Z,8.28
2023-02-11T12:54:46.801Z,8.59
2023-02-11T12:57:02.930Z,8.43
2023-02-11T12:59:20.069Z,8.53
2023-02-11T13:01:32.328Z,8.71
2023-02-11T13:03:44.481Z,8.88
2023-02-11T13:05:56.313Z,8.93
2023-02-11T13:08:08.693Z,8.93
2023-02-11T13:10:28.069Z,8.92
2023-02-11T13:12:50.763Z,8.75
2023-02-11T13:15:05.587Z,8.67
2023-02-11T13:17:20.170Z,8.55
2023-02-11T13:19:35.030Z,8.38
2023-02-11T13:22:03.131Z,8.38
2023-02-11T13:24:21.949Z,8.38
2023-02-11T13:26:36.388Z,8.00
2023-02-11T13:28:52.165Z,8.41
2023-02-11T13:31:07.282Z,8.61
2023-02-11T13:33:24.757Z,8.59
2023-02-11T13:35:34.801Z,8.62
2023-02-11T13:37:43.184Z,8.79
2023-02-11T13:40:00.568Z,9.09
2023-02-11T13:42:08.677Z,9.08
2023-02-11T13:44:26.479Z,9.07
2023-02-11T13:46:57.341Z,8.63
2023-02-11T13:49:05.558Z,7.75
2023-02-11T13:51:16.209Z,7.99
2023-02-11T13:53:24.872Z,7.98
2023-02-11T13:55:35.040Z,7.83
2023-02-11T13:57:43.615Z,7.49
2023-02-11T13:59:54.256Z,7.58
2023-02-11T14:02:35.783Z,7.54
2023-02-11T14:05:17.704Z,7.33
2023-02-11T14:07:44.323Z,7.47
2023-02-11T14:09:53.486Z,7.45
2023-02-11T14:12:27.179Z,7.50
2023-02-11T14:14:36.333Z,7.42
2023-02-11T14:17:27.831Z,7.24
2023-02-11T14:19:40.281Z,7.32
2023-02-11T14:21:49.651Z,7.28
2023-02-11T14:24:32.466Z,7.37
2023-02-11T14:26:51.347Z,7.49
2023-02-11T14:29:05.512Z,7.52
2023-02-11T14:31:16.361Z,7.41
2023-02-11T14:34:05.376Z,7.47
2023-02-11T14:36:37.056Z,7.67
2023-02-11T14:39:01.708Z,7.83
2023-02-11T14:41:13.705Z,7.79
2023-02-11T14:43:29.551Z,8.02
2023-02-11T14:45:40.602Z,8.01
2023-02-11T14:47:55.515Z,8.17
2023-02-11T14:50:03.336Z,8.25
2023-02-11T14:52:30.201Z,8.21
2023-02-11T14:54:39.985Z,8.37
2023-02-11T14:56:48.493Z,8.35
2023-02-11T14:58:58.327Z,8.30
2023-02-11T15:01:10.755Z,8.30
2023-02-11T15:03:32.777Z,8.23
2023-02-11T15:05:40.627Z,8.17
2023-02-11T15:07:54.308Z,7.97
2023-02-11T15:10:02.361Z,7.84
2023-02-11T15:12:20.826Z,7.74
2023-02-11T15:14:31.615Z,7.72
2023-02-11T15:16:44.883Z,7.64
2023-02-11T15:18:56.090Z,7.56
2023-02-11T15:21:04.329Z,7.33
2023-02-11T15:23:24.010Z,7.09
2023-02-11T15:25:34.182Z,6.98
2023-02-11T15:27:43.112Z,7.01
2023-02-11T15:29:53.131Z,6.96
2023-02-11T15:32:09.731Z,7.10
2023-02-11T15:34:17.494Z,7.02
2023-02-11T15:36:28.999Z,7.03
2023-02-11T15:38:40.233Z,6.83
2023-02-11T15:40:56.606Z,6.65
2023-02-11T15:43:08.377Z,6.65
2023-02-11T15:45:29.112Z,6.57
2023-02-11T15:47:37.259Z,6.41
2023-02-11T15:49:48.147Z,6.35
2023-02-11T15:51:59.830Z,6.29
2023-02-11T15:54:20.080Z,6.19
2023-02-11T15:56:33.307Z,6.15
2023-02-11T15:58:42.244Z,6.01
2023-02-11T16:00:52.327Z,5.90
2023-02-11T16:03:00.428Z,5.89
2023-02-11T16:05:11.078Z,5.68
2023-02-11T16:07:42.461Z,5.69
2023-02-11T16:10:00.690Z,5.61
2023-02-11T16:12:27.189Z,5.57
2023-02-11T16:14:39.526Z,5.61
2023-02-11T16:16:51.292Z,5.67
2023-02-11T16:19:05.133Z,5.59
2023-02-11T16:21:19.783Z,5.58
2023-02-11T16:23:30.582Z,5.47
2023-02-11T16:25:40.930Z,5.39
2023-02-11T16:27:52.505Z,5.47
2023-02-11T16:30:01.505Z,5.50
2023-02-11T16:32:11.437Z,5.47
2023-02-11T16:34:21.819Z,5.59
2023-02-11T16:36:30.149Z,5.57
2023-02-11T16:38:38.558Z,5.59
2023-02-11T16:40:50.162Z,5.50
2023-02-11T16:42:58.349Z,5.45
2023-02-11T16:45:06.893Z,5.54
2023-02-11T16:47:22.299Z,5.45
2023-02-11T16:49:33.101Z,5.45
2023-02-11T16:51:43.864Z,5.39
2023-02-11T16:53:51.706Z,5.45
2023-02-11T16:56:02.055Z,5.43
2023-02-11T16:58:11.558Z,5.41
2023-02-11T17:00:20.873Z,5.37
2023-02-11T17:02:30.608Z,5.42
2023-02-11T17:04:38.618Z,5.41
2023-02-11T17:06:48.482Z,5.35
2023-02-11T17:08:58.852Z,5.35
2023-02-11T17:11:09.478Z,5.39
2023-02-11T17:13:17.454Z,5.36
2023-02-11T17:15:25.279Z,5.37
2023-02-11T17:17:33.273Z,5.28
2023-02-11T17:19:42.069Z,5.30
2023-02-11T17:21:52.156Z,5.32
2023-02-11T17:24:00.129Z,5.31
2023-02-11T17:26:11.242Z,5.26
2023-02-11T17:28:19.085Z,5.22
2023-02-11T17:30:29.774Z,5.27
2023-02-11T17:32:37.670Z,5.29
2023-02-11T17:34:45.577Z,5.28
2023-02-11T17:36:53.642Z,5.26
2023-02-11T17:39:01.873Z,5.28
2023-02-11T17:41:12.943Z,5.24
2023-02-11T17:43:20.964Z,5.23
2023-02-11T17:45:28.836Z,5.26
2023-02-11T17:47:36.659Z,5.27
2023-02-11T17:49:45.153Z,5.30
2023-02-11T17:51:52.977Z,5.17
2023-02-11T17:54:02.321Z,5.17
2023-02-11T17:56:12.923Z,5.20
2023-02-11T17:58:20.899Z,5.16
2023-02-11T18:00:28.950Z,5.24
2023-02-11T18:02:36.752Z,5.22
2023-02-11T18:04:44.958Z,5.17
2023-02-11T18:06:53.740Z,5.16
2023-02-11T18:09:02.542Z,5.15
2023-02-11T18:11:16.434Z,5.12
2023-02-11T18:13:24.530Z,5.10
2023-02-11T18:15:32.323Z,5.12
2023-02-11T18:17:40.744Z,5.16
2023-02-11T18:19:48.768Z,5.12
2023-02-11T18:21:58.062Z,5.15
2023-02-11T18:24:08.623Z,5.23
2023-02-11T18:26:21.058Z,5.16
2023-02-11T18:28:29.012Z,5.18
2023-02-11T18:30:37.148Z,5.27
2023-02-11T18:32:45.096Z,5.23
2023-02-11T18:34:52.888Z,5.07
2023-02-11T18:37:00.810Z,5.08
2023-02-11T18:39:08.661Z,5.14
2023-02-11T18:41:19.670Z,5.19
2023-02-11T18:43:31.759Z,5.21
2023-02-11T18:45:39.600Z,5.23
2023-02-11T18:47:47.447Z,5.23
2023-02-11T18:49:55.453Z,5.30
2023-02-11T18:52:03.472Z,5.33
2023-02-11T18:54:11.373Z,5.31
2023-02-11T18:56:23.205Z,5.30
2023-02-11T18:58:31.043Z,5.35
2023-02-11T19:00:41.788Z,5.39
2023-02-11T19:02:49.914Z,5.36
2023-02-11T19:04:57.802Z,5.27
2023-02-11T19:07:06.646Z,5.21
2023-02-11T19:09:19.053Z,5.18
2023-02-11T19:11:42.062Z,5.20
2023-02-11T19:13:51.460Z,5.32
2023-02-11T19:15:59.272Z,5.40
2023-02-11T19:18:07.518Z,5.40
2023-02-11T19:20:18.031Z,5.37
2023-02-11T19:22:26.032Z,5.26
2023-02-11T19:24:34.041Z,5.31
2023-02-11T19:26:45.128Z,5.17
2023-02-11T19:28:53.172Z,5.08
2023-02-11T19:31:01.366Z,4.98
2023-02-11T19:33:10.297Z,4.98
2023-02-11T19:35:18.662Z,4.98
2023-02-11T19:37:26.488Z,4.93
2023-02-11T19:39:34.546Z,4.93
2023-02-11T19:41:45.090Z,4.90
2023-02-11T19:43:56.756Z,4.90
2023-02-11T19:46:04.864Z,4.86
2023-02-11T19:48:15.782Z,4.79
2023-02-11T19:50:23.955Z,4.79
2023-02-11T19:52:32.091Z,4.71
2023-02-11T19:54:42.532Z,4.70
2023-02-11T19:56:53.238Z,4.67
2023-02-11T19:59:01.035Z,4.67
2023-02-11T20:01:10.443Z,4.72
2023-02-11T20:03:18.307Z,4.69
2023-02-11T20:05:26.229Z,4.68
2023-02-11T20:07:34.245Z,4.66
2023-02-11T20:09:42.696Z,4.64
2023-02-11T20:11:53.285Z,4.62
2023-02-11T20:14:02.219Z,4.66
2023-02-11T20:16:12.482Z,4.70
2023-02-11T20:18:20.325Z,4.77
2023-02-11T20:20:28.265Z,4.77
2023-02-11T20:22:36.391Z,4.74
2023-02-11T20:24:44.462Z,4.74
2023-02-11T20:26:56.092Z,4.79
2023-02-11T20:29:05.047Z,4.85
2023-02-11T20:31:14.177Z,4.86
2023-02-11T20:33:22.116Z,4.84
2023-02-11T20:35:29.942Z,4.81
2023-02-11T20:37:38.927Z,4.78
2023-02-11T20:39:48.273Z,4.75
2023-02-11T20:41:59.545Z,4.78
2023-02-11T20:44:10.574Z,4.70
2023-02-11T20:46:21.951Z,4.67
2023-02-11T20:48:29.904Z,4.62
2023-02-11T20:50:38.257Z,4.65
2023-02-11T20:52:46.447Z,4.68
2023-02-11T20:54:54.467Z,4.69
2023-02-11T20:57:04.915Z,4.62
2023-02-11T20:59:14.625Z,4.62
2023-02-11T21:01:25.134Z,4.64
2023-02-11T21:03:33.100Z,4.61
2023-02-11T21:05:41.093Z,4.54
2023-02-11T21:07:49.084Z,4.59
2023-02-11T21:09:57.047Z,4.66
2023-02-11T21:12:08.911Z,4.66
2023-02-11T21:14:17.997Z,4.59
2023-02-11T21:16:26.106Z,4.59
2023-02-11T21:18:34.369Z,4.55
2023-02-11T21:20:42.351Z,4.50
2023-02-11T21:22:50.326Z,4.49
2023-02-11T21:24:58.480Z,4.56
2023-02-11T21:27:09.256Z,4.58
2023-02-11T21:29:17.382Z,4.57
2023-02-11T21:31:27.453Z,4.62
2023-02-11T21:33:36.361Z,4.55
2023-02-11T21:35:44.152Z,4.59
2023-02-11T21:37:51.989Z,4.56
2023-02-11T21:39:59.755Z,4.53
2023-02-11T21:42:10.591Z,4.52
2023-02-11T21:44:18.687Z,4.48
2023-02-11T21:46:26.582Z,4.55
2023-02-11T21:48:34.595Z,4.58
2023-02-11T21:50:43.302Z,4.55
2023-02-11T21:52:50.975Z,4.62
2023-02-11T21:54:58.975Z,4.67
2023-02-11T21:57:06.917Z,4.64
2023-02-11T21:59:18.027Z,4.69
2023-02-11T22:01:27.914Z,4.75
2023-02-11T22:03:35.799Z,4.77
2023-02-11T22:05:44.043Z,4.83
2023-02-11T22:07:52.477Z,4.94
2023-02-11T22:10:00.326Z,5.04
2023-02-11T22:12:08.927Z,4.99
2023-02-11T22:14:22.121Z,4.94
2023-02-11T22:16:30.937Z,4.81
2023-02-11T22:18:39.431Z,4.69
2023-02-11T22:20:47.264Z,4.68
2023-02-11T22:22:55.212Z,4.64
2023-02-11T22:25:10.896Z,4.52
2023-02-11T22:27:20.810Z,4.60
2023-02-11T22:29:31.519Z,4.68
2023-02-11T22:31:39.784Z,4.67
2023-02-11T22:33:49.697Z,4.58
2023-02-11T22:36:01.636Z,4.54
2023-02-11T22:38:09.466Z,4.53
2023-02-11T22:40:17.572Z,4.48
2023-02-11T22:42:26.154Z,4.47
2023-02-11T22:44:36.653Z,4.48
2023-02-11T22:46:44.521Z,4.53
2023-02-11T22:48:52.915Z,4.40
2023-02-11T22:51:17.625Z,4.42
2023-02-11T22:53:27.365Z,4.42
2023-02-11T22:55:41.181Z,4.47
2023-02-11T22:57:50.069Z,4.39
2023-02-11T23:00:00.583Z,4.26
2023-02-11T23:02:08.599Z,4.20
2023-02-11T23:04:19.356Z,4.28
2023-02-11T23:06:27.514Z,4.27
2023-02-11T23:08:40.610Z,4.36
2023-02-11T23:10:49.429Z,4.40
2023-02-11T23:13:00.322Z,4.41
2023-02-11T23:15:11.402Z,4.41
2023-02-11T23:17:19.689Z,4.45
2023-02-11T23:19:27.584Z,4.56
2023-02-11T23:21:38.336Z,4.55
2023-02-11T23:23:47.464Z,4.53
2023-02-11T23:25:55.685Z,4.50
2023-02-11T23:28:04.025Z,4.42
2023-02-11T23:30:18.086Z,4.47
2023-02-11T23:32:27.048Z,4.40
2023-02-11T23:34:34.885Z,4.33
2023-02-11T23:36:42.915Z,4.32
2023-02-11T23:38:51.253Z,4.36
2023-02-11T23:40:59.096Z,4.28
2023-02-11T23:43:07.102Z,4.30
2023-02-11T23:45:17.922Z,4.22
2023-02-11T23:47:25.937Z,4.27
2023-02-11T23:49:34.012Z,4.09
2023-02-11T23:51:41.828Z,4.25
2023-02-11T23:53:49.784Z,4.19
2023-02-11T23:55:57.686Z,4.04
2023-02-11T23:58:05.559Z,3.93
